createdAt,value
2018-07-22T00:00:06.817Z,0.00
2018-07-22T00:01:59.727Z,0.00
2018-07-22T00:02:59.575Z,0.00
2018-07-22T00:04:52.582Z,0.00
2018-07-22T00:05:52.526Z,0.00
2018-07-22T00:07:45.499Z,0.00
2018-07-22T00:08:45.506Z,0.00
2018-07-22T00:10:38.470Z,0.00
2018-07-22T00:11:38.465Z,0.00
2018-07-22T00:13:31.387Z,0.00
2018-07-22T00:14:31.394Z,0.00
2018-07-22T00:16:24.310Z,0.00
2018-07-22T00:17:24.333Z,0.00
2018-07-22T00:19:17.274Z,0.00
2018-07-22T00:20:17.283Z,0.00
2018-07-22T00:22:10.198Z,0.00
2018-07-22T00:23:10.227Z,0.00
2018-07-22T00:25:03.163Z,0.00
2018-07-22T00:26:03.174Z,0.00
2018-07-22T00:27:56.106Z,0.00
2018-07-22T00:28:56.119Z,0.00
2018-07-22T00:30:49.032Z,0.00
2018-07-22T00:31:49.058Z,0.00
2018-07-22T00:33:41.998Z,0.00
2018-07-22T00:34:42.007Z,0.00
2018-07-22T00:36:34.927Z,0.00
2018-07-22T00:37:34.953Z,0.00
2018-07-22T00:39:27.893Z,0.00
2018-07-22T00:40:27.900Z,0.00
2018-07-22T00:42:20.821Z,0.00
2018-07-22T00:43:20.850Z,0.00
2018-07-22T00:45:13.781Z,0.00
2018-07-22T00:46:13.793Z,0.00
2018-07-22T00:48:06.729Z,0.00
2018-07-22T00:49:06.747Z,0.00
2018-07-22T00:50:59.882Z,0.00
2018-07-22T00:51:59.895Z,0.00
2018-07-22T00:53:52.833Z,0.00
2018-07-22T00:54:52.838Z,0.00
2018-07-22T00:56:45.759Z,0.00
2018-07-22T00:57:45.789Z,0.00
2018-07-22T00:59:38.725Z,0.00
2018-07-22T01:00:38.733Z,0.00
2018-07-22T01:02:31.647Z,0.00
2018-07-22T01:03:31.675Z,0.00
2018-07-22T01:05:24.615Z,0.00
2018-07-22T01:06:24.626Z,0.00
2018-07-22T01:08:17.568Z,0.00
2018-07-22T01:09:17.569Z,0.00
2018-07-22T01:11:10.488Z,0.00
2018-07-22T01:12:10.520Z,0.00
2018-07-22T01:14:03.453Z,0.00
2018-07-22T01:15:03.460Z,0.00
2018-07-22T01:16:56.377Z,0.00
2018-07-22T01:17:56.411Z,0.00
2018-07-22T01:19:49.835Z,0.00
2018-07-22T01:20:49.842Z,0.00
2018-07-22T01:22:42.762Z,0.00
2018-07-22T01:23:42.791Z,0.00
2018-07-22T01:25:35.724Z,0.00
2018-07-22T01:26:35.729Z,0.00
2018-07-22T01:28:28.673Z,0.00
2018-07-22T01:29:28.678Z,0.00
2018-07-22T01:31:21.591Z,0.00
2018-07-22T01:32:21.621Z,0.00
2018-07-22T01:34:14.558Z,0.00
2018-07-22T01:35:14.566Z,0.00
2018-07-22T01:37:07.479Z,0.00
2018-07-22T01:38:07.503Z,0.00
2018-07-22T01:40:00.443Z,0.00
2018-07-22T01:41:00.456Z,0.00
2018-07-22T01:42:53.398Z,0.00
2018-07-22T01:43:53.397Z,0.00
2018-07-22T01:45:46.332Z,0.00
2018-07-22T01:46:46.337Z,0.00
2018-07-22T01:48:39.274Z,0.00
2018-07-22T01:49:39.288Z,0.00
2018-07-22T01:51:32.196Z,0.00
2018-07-22T01:52:32.228Z,0.00
2018-07-22T01:54:25.162Z,0.00
2018-07-22T01:55:25.173Z,0.00
2018-07-22T01:57:18.084Z,0.00
2018-07-22T01:58:18.113Z,0.00
2018-07-22T02:00:11.044Z,0.00
2018-07-22T02:01:11.050Z,0.00
2018-07-22T02:03:03.977Z,0.00
2018-07-22T02:04:04.009Z,0.00
2018-07-22T02:05:56.937Z,0.00
2018-07-22T02:06:56.945Z,0.00
2018-07-22T02:08:49.888Z,0.00
2018-07-22T02:09:49.891Z,0.00
2018-07-22T02:11:42.810Z,0.00
2018-07-22T02:12:42.841Z,0.00
2018-07-22T02:14:35.776Z,0.00
2018-07-22T02:15:35.786Z,0.00
2018-07-22T02:17:28.699Z,0.00
2018-07-22T02:18:28.730Z,0.00
2018-07-22T02:20:21.662Z,0.00
2018-07-22T02:21:21.671Z,0.00
2018-07-22T02:23:14.582Z,0.00
2018-07-22T02:24:14.608Z,0.00
2018-07-22T02:26:07.547Z,0.00
2018-07-22T02:27:07.550Z,0.00
2018-07-22T02:29:00.488Z,0.00
2018-07-22T02:30:00.493Z,0.00
2018-07-22T02:31:53.412Z,0.00
2018-07-22T02:32:53.440Z,0.00
2018-07-22T02:34:46.375Z,0.00
2018-07-22T02:35:46.378Z,0.00
2018-07-22T02:37:39.300Z,0.00
2018-07-22T02:38:39.328Z,0.00
2018-07-22T02:40:32.271Z,0.00
2018-07-22T02:41:32.272Z,0.00
2018-07-22T02:43:25.189Z,0.00
2018-07-22T02:44:25.221Z,0.00
2018-07-22T02:46:18.155Z,0.00
2018-07-22T02:47:18.155Z,0.00
2018-07-22T02:49:11.094Z,0.00
2018-07-22T02:50:11.098Z,0.00
2018-07-22T02:52:04.018Z,0.00
2018-07-22T02:53:04.047Z,0.00
2018-07-22T02:54:56.979Z,4.00
2018-07-22T02:55:56.981Z,4.00
2018-07-22T02:57:49.900Z,0.00
2018-07-22T02:58:49.930Z,4.00
2018-07-22T03:00:42.866Z,4.00
2018-07-22T03:01:42.874Z,4.00
2018-07-22T03:03:35.780Z,8.00
2018-07-22T03:04:35.814Z,4.00
2018-07-22T03:06:28.746Z,8.00
2018-07-22T03:07:28.746Z,8.00
2018-07-22T03:09:21.686Z,16.00
2018-07-22T03:10:21.690Z,16.00
2018-07-22T03:12:14.608Z,20.00
2018-07-22T03:13:14.635Z,20.00
2018-07-22T03:15:07.567Z,28.00
2018-07-22T03:16:07.577Z,28.00
2018-07-22T03:18:00.491Z,32.00
2018-07-22T03:19:00.520Z,36.00
2018-07-22T03:20:53.452Z,44.00
2018-07-22T03:21:53.458Z,48.00
2018-07-22T03:23:46.375Z,56.00
2018-07-22T03:24:46.403Z,64.00
2018-07-22T03:26:39.340Z,72.00
2018-07-22T03:27:39.337Z,80.00
2018-07-22T03:29:32.277Z,96.00
2018-07-22T03:30:32.285Z,104.00
2018-07-22T03:32:25.200Z,120.00
2018-07-22T03:33:25.221Z,128.00
2018-07-22T03:35:18.159Z,144.00
2018-07-22T03:36:18.168Z,148.00
2018-07-22T03:38:11.076Z,164.00
2018-07-22T03:39:11.100Z,176.00
2018-07-22T03:41:04.038Z,200.00
2018-07-22T03:42:04.038Z,220.00
2018-07-22T03:43:56.953Z,256.00
2018-07-22T03:44:56.977Z,276.00
2018-07-22T03:46:49.915Z,316.00
2018-07-22T03:47:49.919Z,340.00
2018-07-22T03:49:42.863Z,384.00
2018-07-22T03:50:42.866Z,408.00
2018-07-22T03:52:35.789Z,456.00
2018-07-22T03:53:35.812Z,484.00
2018-07-22T03:55:28.746Z,536.00
2018-07-22T03:56:28.749Z,568.00
2018-07-22T03:58:21.669Z,620.00
2018-07-22T03:59:21.695Z,648.00
2018-07-22T04:01:14.626Z,704.00
2018-07-22T04:02:14.632Z,736.00
2018-07-22T04:04:07.545Z,788.00
2018-07-22T04:05:07.571Z,820.00
2018-07-22T04:07:00.521Z,872.00
2018-07-22T04:08:00.509Z,904.00
2018-07-22T04:09:53.443Z,964.00
2018-07-22T04:10:53.448Z,1004.00
2018-07-22T04:12:46.364Z,1060.00
2018-07-22T04:13:46.393Z,1092.00
2018-07-22T04:15:39.326Z,1164.00
2018-07-22T04:16:39.327Z,1208.00
2018-07-22T04:18:32.244Z,1280.00
2018-07-22T04:19:32.272Z,1320.00
2018-07-22T04:21:25.239Z,1400.00
2018-07-22T04:22:25.204Z,1448.00
2018-07-22T04:24:18.121Z,1552.00
2018-07-22T04:25:18.145Z,1604.00
2018-07-22T04:27:11.085Z,1716.00
2018-07-22T04:28:11.091Z,1776.00
2018-07-22T04:30:04.042Z,1900.00
2018-07-22T04:31:04.030Z,1976.00
2018-07-22T04:32:56.950Z,2136.00
2018-07-22T04:33:56.971Z,2216.00
2018-07-22T04:35:49.916Z,2360.00
2018-07-22T04:36:49.918Z,2432.00
2018-07-22T04:38:42.834Z,2584.00
2018-07-22T04:39:42.859Z,2668.00
2018-07-22T04:41:35.789Z,2824.00
2018-07-22T04:42:35.793Z,2912.00
2018-07-22T04:44:28.709Z,3056.00
2018-07-22T04:45:28.732Z,3096.00
2018-07-22T04:47:21.671Z,3092.00
2018-07-22T04:48:21.673Z,3032.00
2018-07-22T04:50:14.612Z,2824.00
2018-07-22T04:51:14.612Z,2700.00
2018-07-22T04:53:07.551Z,2600.00
2018-07-22T04:54:07.553Z,2584.00
2018-07-22T04:56:00.526Z,2608.00
2018-07-22T04:57:00.503Z,2620.00
2018-07-22T04:58:53.412Z,2612.00
2018-07-22T04:59:53.441Z,2616.00
2018-07-22T05:01:46.382Z,2716.00
2018-07-22T05:02:46.383Z,2836.00
2018-07-22T05:04:39.299Z,3160.00
2018-07-22T05:05:39.322Z,3344.00
2018-07-22T05:07:32.260Z,3660.00
2018-07-22T05:08:32.264Z,3832.00
2018-07-22T05:10:25.181Z,4192.00
2018-07-22T05:11:25.211Z,4364.00
2018-07-22T05:13:18.142Z,4616.00
2018-07-22T05:14:18.147Z,4704.00
2018-07-22T05:16:11.256Z,4796.00
2018-07-22T05:17:11.260Z,4820.00
2018-07-22T05:19:04.176Z,4904.00
2018-07-22T05:20:04.207Z,4968.00
2018-07-22T05:21:57.142Z,5136.00
2018-07-22T05:22:57.144Z,5224.00
2018-07-22T05:24:50.063Z,5372.00
2018-07-22T05:25:50.187Z,5404.00
2018-07-22T05:27:43.029Z,5348.00
2018-07-22T05:28:43.036Z,5292.00
2018-07-22T05:30:35.949Z,5256.00
2018-07-22T05:31:35.982Z,5292.00
2018-07-22T05:33:28.914Z,5440.00
2018-07-22T05:34:28.923Z,5548.00
2018-07-22T05:36:21.855Z,5748.00
2018-07-22T05:37:21.864Z,5820.00
2018-07-22T05:39:14.779Z,5860.00
2018-07-22T05:40:14.805Z,5900.00
2018-07-22T05:42:07.799Z,6028.00
2018-07-22T05:43:07.747Z,6120.00
2018-07-22T05:45:00.665Z,6388.00
2018-07-22T05:46:00.699Z,6632.00
2018-07-22T05:47:53.636Z,7212.00
2018-07-22T05:48:53.637Z,7640.00
2018-07-22T05:50:46.551Z,9656.00
2018-07-22T05:51:46.582Z,10040.00
2018-07-22T05:53:39.516Z,11164.00
2018-07-22T05:54:39.529Z,11576.00
2018-07-22T05:56:32.458Z,12016.00
2018-07-22T05:57:32.465Z,12680.00
2018-07-22T05:59:25.386Z,13244.00
2018-07-22T06:00:25.414Z,13764.00
2018-07-22T06:02:18.352Z,14816.00
2018-07-22T06:03:18.359Z,15040.00
2018-07-22T06:05:11.280Z,15456.00
2018-07-22T06:06:11.310Z,15456.00
2018-07-22T06:08:04.250Z,15968.00
2018-07-22T06:09:04.258Z,16160.00
2018-07-22T06:10:57.198Z,16576.00
2018-07-22T06:11:57.344Z,16768.00
2018-07-22T06:13:50.166Z,16960.00
2018-07-22T06:14:50.180Z,16896.00
2018-07-22T06:16:43.178Z,16832.00
2018-07-22T06:17:43.129Z,17120.00
2018-07-22T06:19:36.057Z,17600.00
2018-07-22T06:20:36.088Z,17696.00
2018-07-22T06:22:29.042Z,18208.00
2018-07-22T06:23:29.075Z,18400.00
2018-07-22T06:25:21.970Z,19456.00
2018-07-22T06:26:22.005Z,19584.00
2018-07-22T06:28:14.952Z,19328.00
2018-07-22T06:29:14.956Z,19456.00
2018-07-22T06:31:07.883Z,19840.00
2018-07-22T06:32:07.912Z,20192.00
2018-07-22T06:34:08.007Z,21568.00
2018-07-22T06:35:00.871Z,21664.00
2018-07-22T06:36:53.820Z,21408.00
2018-07-22T06:37:53.830Z,21568.00
2018-07-22T06:39:46.764Z,21472.00
2018-07-22T06:40:46.793Z,22432.00
2018-07-22T06:42:39.748Z,22560.00
2018-07-22T06:43:39.754Z,23040.00
2018-07-22T06:45:32.719Z,23584.00
2018-07-22T06:46:32.759Z,23648.00
2018-07-22T06:48:25.670Z,23200.00
2018-07-22T06:49:25.678Z,21696.00
2018-07-22T06:51:18.612Z,22240.00
2018-07-22T06:52:18.642Z,18464.00
2018-07-22T06:54:11.638Z,16116.00
2018-07-22T06:55:11.606Z,24832.00
2018-07-22T06:57:04.562Z,22272.00
2018-07-22T06:58:04.572Z,22080.00
2018-07-22T06:59:58.575Z,16352.00
2018-07-22T07:00:58.682Z,25344.00
2018-07-22T07:02:51.560Z,20864.00
2018-07-22T07:03:51.576Z,26208.00
2018-07-22T07:05:44.504Z,27520.00
2018-07-22T07:06:44.534Z,28544.00
2018-07-22T07:08:37.731Z,18656.00
2018-07-22T07:09:37.728Z,15896.00
2018-07-22T07:11:30.691Z,29152.00
2018-07-22T07:12:30.701Z,28000.00
2018-07-22T07:14:23.657Z,30208.00
2018-07-22T07:15:23.667Z,29472.00
2018-07-22T07:17:16.639Z,26336.00
2018-07-22T07:18:16.647Z,27136.00
2018-07-22T07:20:09.571Z,14792.00
2018-07-22T07:21:09.609Z,23008.00
2018-07-22T07:23:02.554Z,17824.00
2018-07-22T07:24:02.568Z,15872.00
2018-07-22T07:25:55.526Z,14188.00
2018-07-22T07:26:55.530Z,14216.00
2018-07-22T07:28:48.502Z,14912.00
2018-07-22T07:29:48.513Z,14792.00
2018-07-22T07:31:41.434Z,13856.00
2018-07-22T07:32:41.462Z,13724.00
2018-07-22T07:34:34.418Z,13188.00
2018-07-22T07:35:34.425Z,13204.00
2018-07-22T07:37:27.376Z,13188.00
2018-07-22T07:38:27.390Z,13088.00
2018-07-22T07:40:20.321Z,13100.00
2018-07-22T07:41:20.352Z,13144.00
2018-07-22T07:43:13.298Z,13208.00
2018-07-22T07:44:13.304Z,13308.00
2018-07-22T07:46:06.234Z,13276.00
2018-07-22T07:47:06.263Z,13160.00
2018-07-22T07:48:59.272Z,12872.00
2018-07-22T07:49:59.217Z,12736.00
2018-07-22T07:51:52.144Z,12468.00
2018-07-22T07:52:52.174Z,12352.00
2018-07-22T07:54:45.133Z,12228.00
2018-07-22T07:55:45.136Z,12136.00
2018-07-22T07:57:38.086Z,12124.00
2018-07-22T07:58:38.093Z,12092.00
2018-07-22T08:00:32.054Z,11936.00
2018-07-22T08:01:32.056Z,11836.00
2018-07-22T08:03:25.005Z,11756.00
2018-07-22T08:04:25.011Z,11700.00
2018-07-22T08:06:17.935Z,11680.00
2018-07-22T08:07:17.975Z,11672.00
2018-07-22T08:09:10.911Z,11632.00
2018-07-22T08:10:10.918Z,11608.00
2018-07-22T08:12:03.841Z,11520.00
2018-07-22T08:13:03.873Z,11472.00
2018-07-22T08:14:56.822Z,11468.00
2018-07-22T08:15:56.825Z,11492.00
2018-07-22T08:17:50.961Z,11540.00
2018-07-22T08:18:50.967Z,11604.00
2018-07-22T08:20:43.895Z,11748.00
2018-07-22T08:21:44.038Z,11716.00
2018-07-22T08:23:36.881Z,11508.00
2018-07-22T08:24:36.907Z,11356.00
2018-07-22T08:26:30.805Z,11096.00
2018-07-22T08:27:30.838Z,10984.00
2018-07-22T08:29:23.787Z,10768.00
2018-07-22T08:30:23.795Z,10724.00
2018-07-22T08:32:16.723Z,10688.00
2018-07-22T08:33:16.750Z,10692.00
2018-07-22T08:35:09.702Z,10740.00
2018-07-22T08:36:09.707Z,10784.00
2018-07-22T08:38:02.854Z,10848.00
2018-07-22T08:39:02.859Z,10872.00
2018-07-22T08:40:55.787Z,10824.00
2018-07-22T08:41:55.813Z,10764.00
2018-07-22T08:43:48.787Z,10460.00
2018-07-22T08:44:48.772Z,10180.00
2018-07-22T08:46:41.712Z,9536.00
2018-07-22T08:47:41.741Z,9620.00
2018-07-22T08:49:34.744Z,9736.00
2018-07-22T08:50:34.704Z,9828.00
2018-07-22T08:52:27.635Z,9840.00
2018-07-22T08:53:27.663Z,9800.00
2018-07-22T08:55:20.611Z,9840.00
2018-07-22T08:56:20.617Z,9840.00
2018-07-22T08:58:13.579Z,9964.00
2018-07-22T08:59:13.574Z,9924.00
2018-07-22T09:01:06.500Z,9424.00
2018-07-22T09:02:06.528Z,8884.00
2018-07-22T09:03:59.475Z,8300.00
2018-07-22T09:04:59.482Z,8336.00
2018-07-22T09:06:52.407Z,8600.00
2018-07-22T09:07:52.434Z,8768.00
2018-07-22T09:09:45.407Z,8876.00
2018-07-22T09:10:45.396Z,8860.00
2018-07-22T09:12:38.325Z,8792.00
2018-07-22T09:13:38.349Z,8756.00
2018-07-22T09:15:31.338Z,8584.00
2018-07-22T09:16:31.307Z,8544.00
2018-07-22T09:18:24.299Z,8488.00
2018-07-22T09:19:24.257Z,8484.00
2018-07-22T09:21:17.187Z,8428.00
2018-07-22T09:22:17.212Z,8372.00
2018-07-22T09:24:10.168Z,8160.00
2018-07-22T09:25:10.175Z,8232.00
2018-07-22T09:27:03.341Z,8168.00
2018-07-22T09:28:03.323Z,8156.00
2018-07-22T09:29:56.267Z,8096.00
2018-07-22T09:30:56.275Z,8060.00
2018-07-22T09:32:49.202Z,8004.00
2018-07-22T09:33:49.230Z,7964.00
2018-07-22T09:35:42.182Z,7884.00
2018-07-22T09:36:42.191Z,7848.00
2018-07-22T09:38:35.143Z,7712.00
2018-07-22T09:39:35.147Z,7636.00
2018-07-22T09:41:28.077Z,7480.00
2018-07-22T09:42:28.104Z,7392.00
2018-07-22T09:44:21.553Z,7300.00
2018-07-22T09:45:21.563Z,7248.00
2018-07-22T09:47:14.490Z,7192.00
2018-07-22T09:48:14.520Z,7152.00
2018-07-22T09:50:07.608Z,7112.00
2018-07-22T09:51:07.489Z,7076.00
2018-07-22T09:53:00.445Z,7012.00
2018-07-22T09:54:00.442Z,7000.00
2018-07-22T09:55:53.393Z,6980.00
2018-07-22T09:56:53.392Z,6964.00
2018-07-22T09:58:46.345Z,6900.00
2018-07-22T09:59:46.352Z,6868.00
2018-07-22T10:01:39.279Z,6808.00
2018-07-22T10:02:39.308Z,6780.00
2018-07-22T10:04:32.285Z,6732.00
2018-07-22T10:05:32.262Z,6708.00
2018-07-22T10:07:25.190Z,6684.00
2018-07-22T10:08:25.219Z,6672.00
2018-07-22T10:10:18.184Z,6636.00
2018-07-22T10:11:18.229Z,6624.00
2018-07-22T10:13:11.127Z,6592.00
2018-07-22T10:14:11.156Z,6572.00
2018-07-22T10:16:04.114Z,6520.00
2018-07-22T10:17:04.116Z,6516.00
2018-07-22T10:18:57.084Z,6504.00
2018-07-22T10:19:57.075Z,6488.00
2018-07-22T10:21:50.014Z,6460.00
2018-07-22T10:22:50.035Z,6440.00
2018-07-22T10:24:42.990Z,6448.00
2018-07-22T10:25:42.988Z,6420.00
2018-07-22T10:27:35.944Z,6392.00
2018-07-22T10:28:35.974Z,6376.00
2018-07-22T10:30:28.903Z,6296.00
2018-07-22T10:31:28.927Z,6280.00
2018-07-22T10:33:22.015Z,6236.00
2018-07-22T10:34:22.045Z,6208.00
2018-07-22T10:36:14.990Z,6196.00
2018-07-22T10:37:14.998Z,6176.00
2018-07-22T10:39:08.950Z,6152.00
2018-07-22T10:40:08.956Z,6152.00
2018-07-22T10:42:01.886Z,6280.00
2018-07-22T10:43:01.913Z,6348.00
2018-07-22T10:44:54.867Z,6376.00
2018-07-22T10:45:54.873Z,6420.00
2018-07-22T10:47:47.841Z,6392.00
2018-07-22T10:48:47.851Z,6372.00
2018-07-22T10:50:40.815Z,6308.00
2018-07-22T10:51:40.815Z,6320.00
2018-07-22T10:53:33.743Z,6464.00
2018-07-22T10:54:33.774Z,6540.00
2018-07-22T10:56:26.717Z,6680.00
2018-07-22T10:57:26.726Z,6788.00
2018-07-22T10:59:19.689Z,7144.00
2018-07-22T11:00:19.689Z,7172.00
2018-07-22T11:02:12.619Z,7448.00
2018-07-22T11:03:12.685Z,7620.00
2018-07-22T11:05:05.599Z,7784.00
2018-07-22T11:06:05.601Z,7996.00
2018-07-22T11:07:58.532Z,8064.00
2018-07-22T11:08:58.562Z,8236.00
2018-07-22T11:10:51.512Z,7624.00
2018-07-22T11:11:51.522Z,7788.00
2018-07-22T11:13:44.445Z,8620.00
2018-07-22T11:14:44.573Z,9376.00
2018-07-22T11:16:37.458Z,10012.00
2018-07-22T11:17:37.444Z,10268.00
2018-07-22T11:19:30.397Z,9932.00
2018-07-22T11:20:30.403Z,9776.00
2018-07-22T11:22:23.356Z,9344.00
2018-07-22T11:23:23.361Z,9068.00
2018-07-22T11:25:16.451Z,9324.00
2018-07-22T11:26:16.461Z,9400.00
2018-07-22T11:28:09.391Z,9356.00
2018-07-22T11:29:09.491Z,9072.00
2018-07-22T11:31:02.404Z,7412.00
2018-07-22T11:32:02.413Z,6864.00
2018-07-22T11:33:55.346Z,7668.00
2018-07-22T11:34:55.376Z,8664.00
2018-07-22T11:36:48.328Z,10060.00
2018-07-22T11:37:48.333Z,10772.00
2018-07-22T11:39:41.261Z,12428.00
2018-07-22T11:40:41.292Z,12632.00
2018-07-22T11:42:34.245Z,11852.00
2018-07-22T11:43:34.254Z,11564.00
2018-07-22T11:45:27.282Z,11324.00
2018-07-22T11:46:27.238Z,11152.00
2018-07-22T11:48:20.165Z,10024.00
2018-07-22T11:49:20.197Z,9424.00
2018-07-22T11:51:13.155Z,7996.00
2018-07-22T11:52:13.169Z,7472.00
2018-07-22T11:54:06.106Z,6876.00
2018-07-22T11:55:06.116Z,7484.00
2018-07-22T11:56:59.126Z,8896.00
2018-07-22T11:57:59.105Z,9048.00
2018-07-22T11:59:52.028Z,9628.00
2018-07-22T12:00:52.059Z,10224.00
2018-07-22T12:02:45.008Z,11088.00
2018-07-22T12:03:45.020Z,11100.00
2018-07-22T12:05:37.973Z,10724.00
2018-07-22T12:06:38.007Z,10568.00
2018-07-22T12:08:32.103Z,9744.00
2018-07-22T12:09:32.159Z,9256.00
2018-07-22T12:11:25.149Z,9340.00
2018-07-22T12:12:25.160Z,10236.00
2018-07-22T12:14:18.044Z,11296.00
2018-07-22T12:15:18.078Z,11292.00
2018-07-22T12:17:11.034Z,11532.00
2018-07-22T12:18:11.047Z,11520.00
2018-07-22T12:20:04.021Z,10820.00
2018-07-22T12:21:04.011Z,10692.00
2018-07-22T12:22:56.964Z,10328.00
2018-07-22T12:23:56.970Z,10328.00
2018-07-22T12:25:50.232Z,9804.00
2018-07-22T12:26:50.248Z,9520.00
2018-07-22T12:28:43.219Z,8700.00
2018-07-22T12:29:43.230Z,8592.00
2018-07-22T12:31:36.224Z,8632.00
2018-07-22T12:32:36.219Z,8692.00
2018-07-22T12:34:29.295Z,9440.00
2018-07-22T12:35:29.186Z,10188.00
2018-07-22T12:37:22.200Z,12144.00
2018-07-22T12:38:22.170Z,12664.00
2018-07-22T12:40:15.137Z,13072.00
2018-07-22T12:41:15.128Z,13376.00
2018-07-22T12:43:08.090Z,14328.00
2018-07-22T12:44:08.111Z,14520.00
2018-07-22T12:46:01.126Z,14816.00
2018-07-22T12:47:01.081Z,14656.00
2018-07-22T12:48:54.012Z,14096.00
2018-07-22T12:49:54.042Z,13604.00
2018-07-22T12:51:46.997Z,11912.00
2018-07-22T12:52:47.071Z,11028.00
2018-07-22T12:54:39.994Z,11460.00
2018-07-22T12:55:39.970Z,12088.00
2018-07-22T12:57:32.912Z,13140.00
2018-07-22T12:58:32.924Z,13684.00
2018-07-22T13:00:25.858Z,13652.00
2018-07-22T13:01:25.890Z,13236.00
2018-07-22T13:03:18.838Z,12028.00
2018-07-22T13:04:18.851Z,11508.00
2018-07-22T13:06:11.807Z,11496.00
2018-07-22T13:07:11.813Z,11704.00
2018-07-22T13:09:04.742Z,11328.00
2018-07-22T13:10:04.775Z,10612.00
2018-07-22T13:11:57.724Z,9320.00
2018-07-22T13:12:57.744Z,8988.00
2018-07-22T13:14:50.670Z,8832.00
2018-07-22T13:15:50.700Z,8920.00
2018-07-22T13:17:43.658Z,9388.00
2018-07-22T13:18:43.663Z,9772.00
2018-07-22T13:20:36.590Z,10724.00
2018-07-22T13:21:36.622Z,11528.00
2018-07-22T13:23:29.590Z,12936.00
2018-07-22T13:24:29.590Z,12692.00
2018-07-22T13:26:22.602Z,10344.00
2018-07-22T13:27:22.558Z,9148.00
2018-07-22T13:29:15.494Z,7716.00
2018-07-22T13:30:15.527Z,7272.00
2018-07-22T13:32:09.470Z,6984.00
2018-07-22T13:33:09.482Z,6996.00
2018-07-22T13:35:02.410Z,6936.00
2018-07-22T13:36:02.455Z,6800.00
2018-07-22T13:37:55.438Z,6536.00
2018-07-22T13:38:55.411Z,6540.00
2018-07-22T13:40:48.528Z,6320.00
2018-07-22T13:41:48.559Z,6108.00
2018-07-22T13:43:41.513Z,5912.00
2018-07-22T13:44:41.520Z,5992.00
2018-07-22T13:46:34.466Z,6144.00
2018-07-22T13:47:34.475Z,6120.00
2018-07-22T13:49:27.403Z,6380.00
2018-07-22T13:50:27.433Z,6628.00
2018-07-22T13:52:20.382Z,7024.00
2018-07-22T13:53:20.389Z,6940.00
2018-07-22T13:55:13.317Z,6876.00
2018-07-22T13:56:13.347Z,7220.00
2018-07-22T13:58:06.292Z,8284.00
2018-07-22T13:59:06.302Z,8600.00
2018-07-22T14:00:59.243Z,7964.00
2018-07-22T14:01:59.281Z,7196.00
2018-07-22T14:03:52.243Z,6324.00
2018-07-22T14:04:52.217Z,6004.00
2018-07-22T14:06:45.164Z,5472.00
2018-07-22T14:07:45.191Z,5360.00
2018-07-22T14:09:38.104Z,5428.00
2018-07-22T14:10:38.132Z,5496.00
2018-07-22T14:12:31.078Z,5324.00
2018-07-22T14:13:31.089Z,5396.00
2018-07-22T14:15:24.020Z,5636.00
2018-07-22T14:16:24.050Z,5708.00
2018-07-22T14:18:17.002Z,5564.00
2018-07-22T14:19:17.008Z,5368.00
2018-07-22T14:21:09.934Z,5180.00
2018-07-22T14:22:09.962Z,5216.00
2018-07-22T14:24:02.908Z,5544.00
2018-07-22T14:25:02.967Z,5820.00
2018-07-22T14:26:57.035Z,6088.00
2018-07-22T14:27:57.072Z,6072.00
2018-07-22T14:29:49.970Z,6244.00
2018-07-22T14:30:50.014Z,6208.00
2018-07-22T14:32:42.949Z,6024.00
2018-07-22T14:33:42.960Z,5884.00
2018-07-22T14:35:35.894Z,5680.00
2018-07-22T14:36:35.917Z,5644.00
2018-07-22T14:38:29.054Z,5656.00
2018-07-22T14:39:29.060Z,5692.00
2018-07-22T14:41:21.989Z,5852.00
2018-07-22T14:42:22.022Z,5956.00
2018-07-22T14:44:14.966Z,6220.00
2018-07-22T14:45:14.974Z,6388.00
2018-07-22T14:47:08.024Z,6800.00
2018-07-22T14:48:07.933Z,7044.00
2018-07-22T14:50:00.860Z,7212.00
2018-07-22T14:51:00.891Z,7432.00
2018-07-22T14:52:54.028Z,7524.00
2018-07-22T14:53:54.041Z,7300.00
2018-07-22T14:55:46.967Z,6916.00
2018-07-22T14:56:46.998Z,6940.00
2018-07-22T14:58:39.944Z,7524.00
2018-07-22T14:59:39.953Z,7852.00
2018-07-22T15:01:33.164Z,8464.00
2018-07-22T15:02:33.194Z,8392.00
2018-07-22T15:04:26.157Z,7852.00
2018-07-22T15:05:26.167Z,7332.00
2018-07-22T15:07:19.122Z,6844.00
2018-07-22T15:08:19.129Z,6612.00
2018-07-22T15:10:12.055Z,6052.00
2018-07-22T15:11:12.086Z,6024.00
2018-07-22T15:13:05.033Z,5824.00
2018-07-22T15:14:05.111Z,5940.00
2018-07-22T15:15:57.975Z,6348.00
2018-07-22T15:16:58.003Z,6568.00
2018-07-22T15:18:50.952Z,7332.00
2018-07-22T15:19:50.966Z,7804.00
2018-07-22T15:21:43.893Z,9012.00
2018-07-22T15:22:43.922Z,9528.00
2018-07-22T15:24:36.872Z,10224.00
2018-07-22T15:25:36.882Z,10088.00
2018-07-22T15:27:29.837Z,10044.00
2018-07-22T15:28:29.844Z,9600.00
2018-07-22T15:30:22.774Z,8224.00
2018-07-22T15:31:22.804Z,7980.00
2018-07-22T15:33:15.757Z,8328.00
2018-07-22T15:34:15.765Z,8696.00
2018-07-22T15:36:08.700Z,8052.00
2018-07-22T15:37:08.727Z,8360.00
2018-07-22T15:39:01.683Z,8976.00
2018-07-22T15:40:01.691Z,8428.00
2018-07-22T15:41:54.618Z,6996.00
2018-07-22T15:42:54.649Z,6368.00
2018-07-22T15:44:47.604Z,5732.00
2018-07-22T15:45:47.607Z,5624.00
2018-07-22T15:47:40.564Z,5488.00
2018-07-22T15:48:40.571Z,5312.00
2018-07-22T15:50:33.501Z,5248.00
2018-07-22T15:51:33.528Z,5388.00
2018-07-22T15:53:26.475Z,5784.00
2018-07-22T15:54:26.484Z,6000.00
2018-07-22T15:56:19.414Z,6176.00
2018-07-22T15:57:19.443Z,6040.00
2018-07-22T15:59:12.585Z,5860.00
2018-07-22T16:00:12.594Z,5860.00
2018-07-22T16:02:05.523Z,5864.00
2018-07-22T16:03:05.553Z,5868.00
2018-07-22T16:04:58.516Z,5712.00
2018-07-22T16:05:58.518Z,5500.00
2018-07-22T16:07:51.466Z,5188.00
2018-07-22T16:08:51.471Z,5188.00
2018-07-22T16:10:44.401Z,5160.00
2018-07-22T16:11:44.427Z,4936.00
2018-07-22T16:13:37.412Z,4656.00
2018-07-22T16:14:37.386Z,4588.00
2018-07-22T16:16:30.313Z,4440.00
2018-07-22T16:17:30.368Z,4240.00
2018-07-22T16:19:23.352Z,3572.00
2018-07-22T16:20:23.300Z,3236.00
2018-07-22T16:22:16.228Z,2824.00
2018-07-22T16:23:16.264Z,2664.00
2018-07-22T16:25:09.205Z,2532.00
2018-07-22T16:26:09.213Z,2452.00
2018-07-22T16:28:02.179Z,2420.00
2018-07-22T16:29:02.191Z,2428.00
2018-07-22T16:30:55.109Z,2564.00
2018-07-22T16:31:55.149Z,2756.00
2018-07-22T16:33:48.095Z,3272.00
2018-07-22T16:34:48.109Z,3564.00
2018-07-22T16:36:41.039Z,4064.00
2018-07-22T16:37:41.068Z,4320.00
2018-07-22T16:39:34.055Z,4320.00
2018-07-22T16:40:34.036Z,4260.00
2018-07-22T16:42:26.994Z,4500.00
2018-07-22T16:43:27.019Z,4744.00
2018-07-22T16:45:19.928Z,4876.00
2018-07-22T16:46:19.937Z,4828.00
2018-07-22T16:48:12.900Z,4360.00
2018-07-22T16:49:12.894Z,4004.00
2018-07-22T16:51:05.831Z,3244.00
2018-07-22T16:52:05.859Z,3140.00
2018-07-22T16:53:58.807Z,3348.00
2018-07-22T16:54:58.817Z,3484.00
2018-07-22T16:56:52.150Z,3556.00
2018-07-22T16:57:52.178Z,3484.00
2018-07-22T16:59:45.125Z,3348.00
2018-07-22T17:00:45.135Z,3408.00
2018-07-22T17:02:38.102Z,3752.00
2018-07-22T17:03:38.091Z,4040.00
2018-07-22T17:05:31.039Z,4772.00
2018-07-22T17:06:31.051Z,5048.00
2018-07-22T17:08:23.975Z,5424.00
2018-07-22T17:09:24.005Z,5668.00
2018-07-22T17:11:16.994Z,6272.00
2018-07-22T17:12:16.963Z,6768.00
2018-07-22T17:14:09.909Z,7356.00
2018-07-22T17:15:09.919Z,7472.00
2018-07-22T17:17:02.847Z,7408.00
2018-07-22T17:18:02.875Z,7192.00
2018-07-22T17:19:55.823Z,6924.00
2018-07-22T17:20:55.832Z,6768.00
2018-07-22T17:22:48.771Z,6324.00
2018-07-22T17:23:48.787Z,6032.00
2018-07-22T17:25:41.777Z,5492.00
2018-07-22T17:26:41.745Z,5308.00
2018-07-22T17:28:34.672Z,5096.00
2018-07-22T17:29:34.702Z,5052.00
2018-07-22T17:31:27.655Z,5008.00
2018-07-22T17:32:27.658Z,4824.00
2018-07-22T17:34:20.604Z,4376.00
2018-07-22T17:35:20.618Z,4224.00
2018-07-22T17:37:13.538Z,4144.00
2018-07-22T17:38:13.569Z,4188.00